Time;durP1;ratioP1;P1;durP2;ratioP2;P2;SDS_P1;SDS_P2;PMS_P1;PMS_P2;Temp;Humidity;BMP_temperature;BMP_pressure;BME280_temperature;BME280_humidity;BME280_pressure;Samples;Min_cycle;Max_cycle;Signal;HPM_P1;HPM_P2
2023/08/20 00:00:43;;;;;;;28.52;14.63;;;18.70;99.90;;;;;;5024712;28;20033;-75
2023/08/20 00:03:12;;;;;;;22.20;14.05;;;18.60;99.90;;;;;;5026027;28;20065;-74
2023/08/20 00:05:39;;;;;;;22.35;13.23;;;18.60;99.90;;;;;;5026101;28;20030;-75
2023/08/20 00:08:04;;;;;;;25.08;13.35;;;18.50;99.90;;;;;;5025741;28;20053;-74
2023/08/20 00:10:31;;;;;;;23.50;13.98;;;18.50;99.90;;;;;;5026221;28;20114;-73
2023/08/20 00:12:57;;;;;;;22.70;13.27;;;18.40;99.90;;;;;;5024599;28;20026;-74
2023/08/20 00:15:26;;;;;;;24.27;13.48;;;18.40;99.90;;;;;;5024273;28;20061;-75
2023/08/20 00:17:53;;;;;;;22.30;13.90;;;18.40;99.90;;;;;;5024704;28;20430;-75
2023/08/20 00:20:19;;;;;;;24.65;13.23;;;18.30;99.90;;;;;;5025047;28;20030;-73
2023/08/20 00:22:45;;;;;;;22.52;13.10;;;18.30;99.90;;;;;;5023027;28;20072;-74
2023/08/20 00:25:15;;;;;;;22.85;13.13;;;18.30;99.90;;;;;;5024315;28;20129;-75
2023/08/20 00:27:41;;;;;;;20.25;13.23;;;18.20;99.90;;;;;;5025520;28;20101;-74
2023/08/20 00:30:08;;;;;;;24.77;13.35;;;18.20;99.90;;;;;;5024109;28;20030;-75
2023/08/20 00:32:35;;;;;;;23.25;12.73;;;18.20;99.90;;;;;;5025519;28;20195;-75
2023/08/20 00:35:02;;;;;;;26.15;13.32;;;18.10;99.90;;;;;;5025480;28;20072;-74
2023/08/20 00:37:29;;;;;;;22.88;13.93;;;18.00;99.90;;;;;;5025110;28;20434;-75
2023/08/20 00:39:58;;;;;;;19.95;12.77;;;18.10;99.90;;;;;;5025345;28;20026;-75
2023/08/20 00:42:25;;;;;;;24.48;12.52;;;18.00;99.90;;;;;;5025064;28;20018;-74
2023/08/20 00:44:51;;;;;;;24.42;12.52;;;18.00;99.90;;;;;;5025232;28;20030;-74
2023/08/20 00:47:18;;;;;;;19.70;12.95;;;18.00;99.90;;;;;;5024945;28;20038;-73
2023/08/20 00:49:45;;;;;;;21.08;13.23;;;18.00;99.90;;;;;;5023606;28;20053;-76
2023/08/20 00:52:13;;;;;;;21.15;12.60;;;17.90;99.90;;;;;;5023746;28;20029;-75
2023/08/20 00:54:40;;;;;;;20.35;12.30;;;18.00;99.90;;;;;;5023682;28;20053;-75
2023/08/20 00:57:08;;;;;;;21.52;12.18;;;17.90;99.90;;;;;;5023678;28;20033;-74
2023/08/20 00:59:35;;;;;;;22.02;12.30;;;17.90;99.90;;;;;;5023327;28;20030;-75
2023/08/20 01:02:01;;;;;;;22.05;12.07;;;17.90;99.90;;;;;;5025212;28;20056;-75
2023/08/20 01:04:29;;;;;;;20.70;11.35;;;17.80;99.90;;;;;;5024796;28;20029;-75
2023/08/20 01:07:36;;;;;;;20.17;12.13;;;17.80;99.90;;;;;;5024621;28;20076;-76
2023/08/20 01:10:17;;;;;;;21.25;12.57;;;17.80;99.90;;;;;;5018085;28;20103;-74
2023/08/20 01:12:45;;;;;;;21.35;12.70;;;17.80;99.90;;;;;;5024499;28;20034;-74
2023/08/20 01:15:13;;;;;;;20.48;11.60;;;17.70;99.90;;;;;;5023459;28;20026;-75
2023/08/20 01:17:41;;;;;;;25.35;12.48;;;17.70;99.90;;;;;;5024599;28;20025;-75
2023/08/20 01:20:10;;;;;;;18.20;11.40;;;17.70;99.90;;;;;;5024012;28;20053;-74
2023/08/20 01:23:23;;;;;;;19.20;11.65;;;17.60;99.90;;;;;;5024237;28;20034;-75
2023/08/20 01:26:26;;;;;;;21.67;11.47;;;17.60;99.90;;;;;;4985297;28;20030;-73
2023/08/20 01:28:52;;;;;;;20.08;11.68;;;17.60;99.90;;;;;;5023110;28;20046;-74
2023/08/20 01:31:19;;;;;;;20.08;12.07;;;17.60;99.90;;;;;;5024448;28;20111;-72
2023/08/20 01:33:45;;;;;;;20.38;11.55;;;17.60;99.90;;;;;;5023957;28;20081;-72
2023/08/20 01:36:11;;;;;;;18.85;11.45;;;17.50;99.90;;;;;;5024359;28;20034;-75
2023/08/20 01:38:38;;;;;;;19.02;11.15;;;17.50;99.90;;;;;;5024453;28;20045;-74
2023/08/20 01:41:04;;;;;;;18.13;11.40;;;17.50;99.90;;;;;;5024401;28;20056;-75
2023/08/20 01:43:29;;;;;;;18.67;11.18;;;17.40;99.90;;;;;;5022818;28;20093;-74
2023/08/20 01:45:55;;;;;;;24.42;10.85;;;17.40;99.90;;;;;;5024208;28;20045;-72
2023/08/20 01:48:21;;;;;;;21.95;11.55;;;17.40;99.90;;;;;;5022517;28;20049;-73
2023/08/20 01:50:46;;;;;;;18.48;10.82;;;17.40;99.90;;;;;;5023103;28;20045;-73
2023/08/20 01:53:12;;;;;;;18.35;11.52;;;17.40;99.90;;;;;;5023930;28;20021;-74
2023/08/20 01:55:38;;;;;;;19.42;10.98;;;17.30;99.90;;;;;;5024129;28;20041;-73
2023/08/20 01:58:04;;;;;;;16.23;10.05;;;17.30;99.90;;;;;;5024288;28;20022;-72
2023/08/20 02:00:30;;;;;;;15.77;8.82;;;17.30;99.90;;;;;;5023699;28;20085;-74
2023/08/20 02:02:56;;;;;;;15.68;8.15;;;17.30;99.90;;;;;;5022569;28;20534;-74
2023/08/20 02:05:22;;;;;;;12.90;8.10;;;17.20;99.90;;;;;;5022846;28;20089;-73
2023/08/20 02:07:47;;;;;;;14.00;8.80;;;17.20;99.90;;;;;;5023496;28;20052;-73
2023/08/20 02:10:13;;;;;;;15.32;8.88;;;17.10;99.90;;;;;;5022508;28;20030;-72
2023/08/20 02:12:41;;;;;;;13.80;9.05;;;17.10;99.90;;;;;;5023220;28;20088;-75
2023/08/20 02:15:08;;;;;;;15.55;8.32;;;17.10;99.90;;;;;;5022242;28;20390;-73
2023/08/20 02:17:35;;;;;;;17.73;9.00;;;17.00;99.90;;;;;;5023931;28;20024;-73
2023/08/20 02:20:03;;;;;;;16.88;9.27;;;17.00;99.90;;;;;;5024004;28;20018;-72
2023/08/20 02:22:29;;;;;;;19.70;9.52;;;17.00;99.90;;;;;;5023428;28;20030;-73
2023/08/20 02:24:55;;;;;;;16.83;9.25;;;16.90;99.90;;;;;;5023930;28;20052;-73
2023/08/20 02:27:21;;;;;;;17.48;9.40;;;16.90;99.90;;;;;;5023520;28;20030;-72
2023/08/20 02:29:47;;;;;;;16.75;9.50;;;16.90;99.90;;;;;;5023497;28;20050;-72
2023/08/20 02:32:12;;;;;;;15.90;10.40;;;16.80;99.90;;;;;;5023656;28;20022;-73
2023/08/20 02:34:38;;;;;;;16.55;9.57;;;16.90;99.90;;;;;;5023520;28;20465;-73
2023/08/20 02:37:04;;;;;;;17.02;10.40;;;16.80;99.90;;;;;;5023681;28;20061;-74
2023/08/20 02:39:29;;;;;;;20.38;10.05;;;16.90;99.90;;;;;;5022448;28;20040;-73
2023/08/20 02:41:55;;;;;;;16.88;10.52;;;16.90;99.90;;;;;;5023752;28;20101;-71
2023/08/20 02:44:20;;;;;;;19.30;9.90;;;16.80;99.90;;;;;;5023421;28;20374;-72
2023/08/20 02:46:46;;;;;;;21.63;10.60;;;16.90;99.90;;;;;;5021916;28;20041;-74
2023/08/20 02:49:12;;;;;;;40.45;13.68;;;16.90;99.90;;;;;;5023604;28;20036;-73
2023/08/20 02:51:37;;;;;;;28.45;13.85;;;16.90;99.90;;;;;;5023571;28;20066;-72
2023/08/20 02:54:03;;;;;;;27.17;13.93;;;16.70;99.90;;;;;;5022478;28;20022;-73
2023/08/20 02:56:29;;;;;;;32.80;14.55;;;16.80;99.90;;;;;;5022226;28;20026;-73
2023/08/20 02:59:00;;;;;;;57.70;16.20;;;16.80;99.90;;;;;;5023225;28;20030;-74
2023/08/20 03:01:26;;;;;;;42.42;16.00;;;16.80;99.90;;;;;;5023595;28;20030;-72
2023/08/20 03:03:52;;;;;;;43.47;15.55;;;16.80;99.90;;;;;;5022190;28;20061;-72
2023/08/20 03:06:17;;;;;;;63.97;16.00;;;16.80;99.90;;;;;;5023534;28;20539;-73
2023/08/20 03:08:44;;;;;;;56.08;14.90;;;16.80;99.90;;;;;;5023975;28;20030;-73
2023/08/20 03:11:10;;;;;;;79.57;13.13;;;16.70;99.90;;;;;;5021751;28;20102;-73
2023/08/20 03:13:35;;;;;;;74.68;14.57;;;16.70;99.90;;;;;;5023305;28;20034;-75
2023/08/20 03:16:02;;;;;;;34.35;12.98;;;16.70;99.90;;;;;;5022839;28;20033;-73
2023/08/20 03:18:27;;;;;;;32.63;13.48;;;16.70;99.90;;;;;;5023777;28;20110;-72
2023/08/20 03:20:58;;;;;;;56.65;13.85;;;16.70;99.90;;;;;;5022815;28;20034;-73
2023/08/20 03:23:24;;;;;;;40.35;13.00;;;16.70;99.90;;;;;;5025376;28;20045;-72
2023/08/20 03:25:49;;;;;;;25.38;12.65;;;16.60;99.90;;;;;;5027189;28;20030;-74
2023/08/20 03:28:17;;;;;;;20.58;12.93;;;16.60;99.90;;;;;;5024979;28;20180;-73
2023/08/20 03:30:43;;;;;;;22.10;13.05;;;16.50;99.90;;;;;;5025432;28;20056;-74
2023/08/20 03:33:08;;;;;;;22.65;12.95;;;16.50;99.90;;;;;;5024902;28;20049;-74
2023/08/20 03:35:34;;;;;;;22.58;12.68;;;16.50;99.90;;;;;;5026731;28;20084;-73
2023/08/20 03:38:00;;;;;;;20.83;13.00;;;16.40;99.90;;;;;;5025588;28;20077;-72
2023/08/20 03:40:27;;;;;;;21.33;12.35;;;16.40;99.90;;;;;;5025555;28;20030;-73
2023/08/20 03:42:53;;;;;;;17.40;11.80;;;16.40;99.90;;;;;;5025516;28;20058;-73
2023/08/20 03:45:18;;;;;;;18.08;11.48;;;16.40;99.90;;;;;;5025118;28;20026;-74
2023/08/20 03:47:46;;;;;;;17.35;11.82;;;16.40;99.90;;;;;;5024666;28;20041;-73
2023/08/20 03:50:12;;;;;;;17.80;12.10;;;16.40;99.90;;;;;;5024897;28;20053;-73
2023/08/20 03:52:39;;;;;;;20.65;11.25;;;16.40;99.90;;;;;;5025109;28;20459;-74
2023/08/20 03:55:06;;;;;;;19.20;11.15;;;16.40;99.90;;;;;;5025918;28;20033;-74
2023/08/20 03:57:31;;;;;;;18.52;11.82;;;16.40;99.90;;;;;;5026338;28;20172;-72
2023/08/20 03:59:57;;;;;;;17.23;11.88;;;16.40;99.90;;;;;;5026184;28;20053;-73
2023/08/20 04:02:23;;;;;;;17.60;10.75;;;16.40;99.90;;;;;;5024416;28;20478;-74
2023/08/20 04:04:49;;;;;;;18.80;12.10;;;16.40;99.90;;;;;;5026163;28;20496;-73
2023/08/20 04:07:14;;;;;;;19.42;12.20;;;16.50;99.90;;;;;;5024367;28;20038;-73
2023/08/20 04:09:41;;;;;;;17.50;12.73;;;16.50;99.90;;;;;;5024312;28;20040;-73
2023/08/20 04:12:07;;;;;;;18.85;11.68;;;16.50;99.90;;;;;;5026064;28;20473;-73
2023/08/20 04:14:32;;;;;;;18.15;11.85;;;16.50;99.90;;;;;;5026138;28;20030;-73
2023/08/20 04:16:58;;;;;;;19.30;12.18;;;16.50;99.90;;;;;;5024252;28;20034;-71
2023/08/20 04:19:24;;;;;;;17.75;11.93;;;16.50;99.90;;;;;;5024573;28;20032;-74
2023/08/20 04:21:50;;;;;;;21.17;12.70;;;16.50;99.90;;;;;;5025207;28;20356;-73
2023/08/20 04:24:15;;;;;;;22.70;12.35;;;16.50;99.90;;;;;;5023958;28;20229;-74
2023/08/20 04:26:41;;;;;;;18.90;12.07;;;16.50;99.90;;;;;;5025789;28;20022;-75
2023/08/20 04:29:07;;;;;;;21.42;12.00;;;16.50;99.90;;;;;;5024469;28;20042;-75
2023/08/20 04:31:33;;;;;;;19.80;12.18;;;16.50;99.90;;;;;;5025371;28;20038;-75
2023/08/20 04:33:59;;;;;;;17.35;11.88;;;16.50;99.90;;;;;;5025366;28;20052;-74
2023/08/20 04:36:24;;;;;;;25.08;12.32;;;16.50;99.90;;;;;;5023259;28;20770;-74
2023/08/20 04:38:50;;;;;;;17.55;10.52;;;16.50;99.90;;;;;;5023778;28;20060;-73
2023/08/20 04:41:16;;;;;;;16.25;10.43;;;16.40;99.90;;;;;;5025522;28;20034;-74
2023/08/20 04:43:41;;;;;;;14.00;9.48;;;16.40;99.90;;;;;;5025500;28;20030;-76
2023/08/20 04:46:08;;;;;;;15.50;10.25;;;16.40;99.90;;;;;;5023887;28;20064;-74
2023/08/20 04:48:33;;;;;;;51.33;10.00;;;16.30;99.90;;;;;;5024322;28;20064;-76
2023/08/20 04:51:03;;;;;;;42.90;9.18;;;16.30;99.90;;;;;;5019772;28;20038;-76
2023/08/20 04:53:29;;;;;;;18.40;8.68;;;16.30;99.90;;;;;;5024384;28;20030;-74
2023/08/20 04:55:56;;;;;;;15.10;8.38;;;16.20;99.90;;;;;;5024470;28;20135;-73
2023/08/20 04:58:22;;;;;;;44.83;9.55;;;16.20;99.90;;;;;;5025556;28;20068;-72
2023/08/20 05:00:48;;;;;;;116.40;9.95;;;16.20;99.90;;;;;;5023635;28;20085;-72
2023/08/20 05:03:13;;;;;;;55.22;9.63;;;16.20;99.90;;;;;;5024401;28;20489;-74
2023/08/20 05:05:39;;;;;;;39.03;9.02;;;16.10;99.90;;;;;;5023942;28;20065;-74
2023/08/20 05:08:05;;;;;;;13.02;9.43;;;16.10;99.90;;;;;;5025222;28;20040;-75
2023/08/20 05:10:31;;;;;;;13.98;9.10;;;16.10;99.90;;;;;;5025626;28;20108;-73
2023/08/20 05:12:56;;;;;;;17.00;9.65;;;16.10;99.90;;;;;;5023853;28;20037;-72
2023/08/20 05:15:22;;;;;;;13.00;9.82;;;16.10;99.90;;;;;;5025086;28;20030;-75
2023/08/20 05:17:48;;;;;;;15.63;10.52;;;16.10;99.90;;;;;;5024310;28;20167;-73
2023/08/20 05:20:14;;;;;;;17.50;10.23;;;16.20;99.90;;;;;;5023421;28;20136;-74
2023/08/20 05:22:40;;;;;;;18.75;12.02;;;16.20;99.90;;;;;;5023923;28;20022;-74
2023/08/20 05:25:06;;;;;;;22.92;11.77;;;16.20;99.90;;;;;;5023282;28;20093;-73
2023/08/20 05:27:32;;;;;;;19.63;11.65;;;16.30;99.90;;;;;;5023538;28;20069;-74
2023/08/20 05:29:57;;;;;;;18.25;12.68;;;16.30;99.90;;;;;;5023850;28;20026;-74
2023/08/20 05:32:23;;;;;;;21.00;12.88;;;16.40;99.90;;;;;;5024190;28;20041;-73
2023/08/20 05:34:48;;;;;;;20.23;12.25;;;16.40;99.90;;;;;;5023184;28;20049;-73
2023/08/20 05:37:14;;;;;;;22.52;12.77;;;16.50;99.90;;;;;;5024654;28;20038;-73
2023/08/20 05:39:43;;;;;;;19.23;12.80;;;16.50;99.90;;;;;;5023209;28;20057;-73
2023/08/20 05:42:10;;;;;;;19.08;12.27;;;16.60;99.90;;;;;;5023803;28;20061;-74
2023/08/20 05:44:36;;;;;;;23.40;13.52;;;16.60;99.90;;;;;;5024945;28;20061;-75
2023/08/20 05:47:01;;;;;;;23.40;13.45;;;16.70;99.90;;;;;;5025187;28;20029;-73
2023/08/20 05:49:27;;;;;;;29.15;14.65;;;16.70;99.90;;;;;;5024572;28;20030;-72
2023/08/20 05:51:53;;;;;;;29.83;14.43;;;16.80;99.90;;;;;;5024756;28;20093;-74
2023/08/20 05:54:18;;;;;;;27.42;14.27;;;16.90;99.90;;;;;;5024963;28;20073;-74
2023/08/20 05:56:44;;;;;;;30.42;14.65;;;16.90;99.90;;;;;;5022962;28;20045;-74
2023/08/20 05:59:11;;;;;;;26.70;14.60;;;17.00;99.90;;;;;;5008583;28;20033;-73
2023/08/20 06:01:37;;;;;;;22.63;13.85;;;17.00;99.90;;;;;;5007023;28;20179;-75
2023/08/20 06:04:03;;;;;;;31.40;14.27;;;17.10;99.90;;;;;;5012146;28;20121;-73
2023/08/20 06:06:29;;;;;;;25.48;14.98;;;17.10;99.90;;;;;;5021964;28;20026;-74
2023/08/20 06:08:54;;;;;;;27.98;13.52;;;17.20;99.90;;;;;;5023289;28;20025;-73
2023/08/20 06:11:20;;;;;;;25.48;13.93;;;17.30;99.90;;;;;;5021651;28;20439;-73
2023/08/20 06:13:46;;;;;;;25.33;13.20;;;17.30;99.90;;;;;;5015820;28;20100;-74
2023/08/20 06:16:11;;;;;;;25.98;14.90;;;17.40;99.90;;;;;;5023837;28;20022;-74
2023/08/20 06:18:37;;;;;;;23.55;14.05;;;17.40;99.90;;;;;;5023923;28;20034;-76
2023/08/20 06:21:03;;;;;;;27.63;14.10;;;17.50;99.90;;;;;;5024736;28;20026;-75
2023/08/20 06:23:29;;;;;;;29.52;14.13;;;17.60;99.90;;;;;;5021855;28;20026;-71
2023/08/20 06:25:54;;;;;;;27.88;15.05;;;17.60;99.90;;;;;;5024410;28;20806;-74
2023/08/20 06:28:21;;;;;;;24.02;14.02;;;17.60;99.90;;;;;;5024425;28;20026;-74
2023/08/20 06:30:46;;;;;;;28.98;13.68;;;17.70;99.90;;;;;;5024379;28;20030;-75
2023/08/20 06:33:12;;;;;;;30.20;15.55;;;17.70;99.90;;;;;;5022727;28;20908;-75
2023/08/20 06:35:38;;;;;;;28.70;14.60;;;17.80;99.90;;;;;;5022430;28;20033;-75
2023/08/20 06:38:04;;;;;;;24.13;13.75;;;17.80;99.90;;;;;;5021968;28;20044;-76
2023/08/20 06:40:30;;;;;;;21.40;12.90;;;17.90;99.90;;;;;;5008169;28;20038;-75
2023/08/20 06:42:56;;;;;;;24.67;13.18;;;18.00;99.90;;;;;;5005091;28;20023;-74
2023/08/20 06:45:21;;;;;;;28.60;14.95;;;18.00;99.90;;;;;;5003298;28;20118;-75
2023/08/20 06:47:47;;;;;;;24.95;13.50;;;18.10;99.90;;;;;;5005906;28;20029;-74
2023/08/20 06:50:12;;;;;;;24.77;13.50;;;18.20;99.90;;;;;;5022415;28;20034;-76
2023/08/20 06:52:38;;;;;;;21.88;11.82;;;18.30;99.90;;;;;;5023796;28;20026;-73
2023/08/20 06:55:04;;;;;;;26.27;13.95;;;18.40;99.90;;;;;;5023931;28;20026;-74
2023/08/20 06:57:30;;;;;;;27.95;13.25;;;18.40;99.90;;;;;;5023657;28;20061;-75
2023/08/20 06:59:55;;;;;;;35.20;14.82;;;18.50;99.90;;;;;;5026466;28;20478;-74
2023/08/20 07:02:21;;;;;;;31.48;14.55;;;18.60;99.90;;;;;;5028069;28;20057;-74
2023/08/20 07:04:47;;;;;;;27.58;12.07;;;18.70;99.90;;;;;;5025810;28;20022;-74
2023/08/20 07:07:13;;;;;;;29.60;12.73;;;18.80;99.90;;;;;;5012642;28;20038;-76
2023/08/20 07:09:39;;;;;;;22.58;11.95;;;18.80;99.90;;;;;;5027132;28;20041;-74
2023/08/20 07:12:05;;;;;;;25.00;11.77;;;18.90;99.90;;;;;;5026002;28;20026;-73
2023/08/20 07:14:31;;;;;;;28.90;11.23;;;19.00;99.90;;;;;;5025100;28;20132;-73
2023/08/20 07:16:56;;;;;;;27.33;12.95;;;19.00;99.90;;;;;;5010324;28;20046;-75
2023/08/20 07:19:22;;;;;;;25.75;10.23;;;19.10;99.90;;;;;;5025662;28;20038;-72
2023/08/20 07:21:47;;;;;;;21.90;10.25;;;19.20;99.90;;;;;;5025882;28;20521;-72
2023/08/20 07:24:13;;;;;;;25.00;9.50;;;19.30;99.90;;;;;;5025960;28;20120;-72
2023/08/20 07:26:39;;;;;;;24.73;7.72;;;19.40;99.90;;;;;;5027688;28;20033;-75
2023/08/20 07:29:05;;;;;;;14.60;6.30;;;19.40;99.90;;;;;;5024825;28;20026;-72
2023/08/20 07:31:32;;;;;;;13.82;6.07;;;19.50;99.90;;;;;;5022714;28;20034;-72
2023/08/20 07:34:00;;;;;;;14.88;5.55;;;19.60;99.90;;;;;;5007692;28;20077;-68
2023/08/20 07:36:26;;;;;;;14.77;5.25;;;19.70;99.90;;;;;;5017214;28;20109;-75
2023/08/20 07:38:55;;;;;;;10.73;4.70;;;19.80;99.90;;;;;;5024028;28;20030;-72
2023/08/20 07:41:22;;;;;;;12.75;4.88;;;19.80;99.90;;;;;;5022265;28;20026;-72
2023/08/20 07:43:48;;;;;;;13.13;4.32;;;19.90;99.90;;;;;;5007400;28;20030;-73
2023/08/20 07:46:15;;;;;;;13.10;4.35;;;19.90;99.90;;;;;;5014756;28;20153;-73
2023/08/20 07:48:40;;;;;;;12.80;4.20;;;20.00;99.90;;;;;;5020721;28;20093;-73
2023/08/20 07:51:06;;;;;;;11.88;4.65;;;20.10;99.90;;;;;;5016420;28;20065;-75
2023/08/20 07:53:33;;;;;;;13.00;4.35;;;20.10;99.90;;;;;;5017613;28;20591;-76
2023/08/20 07:56:02;;;;;;;11.95;4.00;;;20.20;99.90;;;;;;5019190;28;20041;-74
2023/08/20 07:58:28;;;;;;;13.70;3.80;;;20.30;99.90;;;;;;5015036;28;20052;-75
2023/08/20 08:00:55;;;;;;;13.43;3.90;;;20.30;99.90;;;;;;5019551;28;20058;-74
2023/08/20 08:03:20;;;;;;;12.13;4.18;;;20.40;99.90;;;;;;5024727;28;20033;-75
2023/08/20 08:05:48;;;;;;;14.07;3.95;;;20.50;99.90;;;;;;5014896;28;20034;-72
2023/08/20 08:08:14;;;;;;;16.75;5.15;;;20.50;99.90;;;;;;5015270;28;20050;-78
2023/08/20 08:10:40;;;;;;;10.30;4.20;;;20.60;99.90;;;;;;5009198;28;20029;-72
2023/08/20 08:13:06;;;;;;;10.80;4.10;;;20.60;99.90;;;;;;5015499;28;20030;-73
2023/08/20 08:15:31;;;;;;;17.58;4.20;;;20.70;99.90;;;;;;5006817;28;20033;-75
2023/08/20 08:17:57;;;;;;;14.05;4.18;;;20.70;99.90;;;;;;5016274;28;20041;-73
2023/08/20 08:20:22;;;;;;;11.48;4.40;;;20.80;99.90;;;;;;5019701;28;20412;-74
2023/08/20 08:22:48;;;;;;;15.38;4.50;;;20.80;99.90;;;;;;5027356;28;20030;-74
2023/08/20 08:25:13;;;;;;;12.63;4.55;;;20.90;99.90;;;;;;5018804;28;20037;-72
2023/08/20 08:27:39;;;;;;;14.38;4.15;;;20.90;99.90;;;;;;5017740;28;20030;-71
2023/08/20 08:30:06;;;;;;;11.23;3.60;;;21.00;99.90;;;;;;5015721;28;20045;-74
2023/08/20 08:32:31;;;;;;;12.07;3.63;;;21.10;99.90;;;;;;5014931;28;20022;-73
2023/08/20 08:34:57;;;;;;;10.70;3.70;;;21.30;99.90;;;;;;5036425;28;20116;-74
2023/08/20 08:37:22;;;;;;;13.32;3.83;;;21.50;99.90;;;;;;5022112;28;20041;-77
2023/08/20 08:39:48;;;;;;;11.90;4.07;;;21.60;99.90;;;;;;5018089;28;20113;-77
2023/08/20 08:42:14;;;;;;;13.57;3.95;;;21.70;99.90;;;;;;5019384;28;20030;-73
2023/08/20 08:44:40;;;;;;;11.75;4.15;;;21.80;99.90;;;;;;5020715;28;20030;-73
2023/08/20 08:47:06;;;;;;;11.70;4.10;;;21.90;99.90;;;;;;5024376;28;20060;-81
2023/08/20 08:49:35;;;;;;;13.32;4.13;;;22.00;99.90;;;;;;5024625;28;20026;-74
2023/08/20 08:52:03;;;;;;;13.13;4.60;;;22.10;99.90;;;;;;5024761;28;20034;-74
2023/08/20 08:54:29;;;;;;;9.82;3.80;;;22.20;99.90;;;;;;5026220;28;20073;-74
2023/08/20 08:56:55;;;;;;;11.38;3.95;;;22.20;99.90;;;;;;5025398;28;20096;-75
2023/08/20 08:59:21;;;;;;;14.77;3.70;;;22.30;99.90;;;;;;5024479;28;20112;-74
2023/08/20 09:01:48;;;;;;;11.43;3.75;;;22.30;99.90;;;;;;5027154;28;20030;-73
2023/08/20 09:04:13;;;;;;;14.43;4.60;;;22.40;99.90;;;;;;5023958;28;20083;-73
2023/08/20 09:06:50;;;;;;;12.57;3.97;;;22.40;99.90;;;;;;5020576;28;20109;-74
2023/08/20 09:09:21;;;;;;;16.85;5.00;;;22.50;99.90;;;;;;5018071;28;20034;-76
2023/08/20 09:11:47;;;;;;;11.38;4.55;;;22.50;99.90;;;;;;5030349;28;20035;-77
2023/08/20 09:14:27;;;;;;;14.85;4.78;;;22.50;99.90;;;;;;5018047;28;20030;-73
2023/08/20 09:17:00;;;;;;;12.23;4.68;;;22.50;99.90;;;;;;5012847;28;20048;-73
2023/08/20 09:19:34;;;;;;;13.02;4.60;;;22.50;99.90;;;;;;5018093;28;20026;-74
2023/08/20 09:22:00;;;;;;;12.90;4.90;;;22.50;99.90;;;;;;5016000;28;20030;-77
2023/08/20 09:24:44;;;;;;;13.00;4.97;;;22.50;99.90;;;;;;5023035;28;20395;-74
2023/08/20 09:27:11;;;;;;;14.30;6.07;;;22.50;99.90;;;;;;5014352;28;20029;-73
2023/08/20 09:29:48;;;;;;;16.80;5.60;;;22.50;99.90;;;;;;5020349;28;20106;-74
2023/08/20 09:32:15;;;;;;;9.90;4.85;;;22.60;99.90;;;;;;5024135;28;20052;-76
2023/08/20 09:34:42;;;;;;;14.32;5.63;;;22.70;99.90;;;;;;5022838;28;20042;-76
2023/08/20 09:37:18;;;;;;;15.25;5.13;;;22.70;99.90;;;;;;5024989;28;20061;-76
2023/08/20 09:39:44;;;;;;;15.77;6.10;;;22.80;99.90;;;;;;5023224;28;20021;-71
2023/08/20 09:42:10;;;;;;;18.27;5.55;;;22.80;99.90;;;;;;5024518;28;20022;-72
2023/08/20 09:44:38;;;;;;;16.30;5.55;;;22.80;99.90;;;;;;5032221;28;20045;-73
2023/08/20 09:47:08;;;;;;;13.43;6.00;;;22.90;99.90;;;;;;5038106;28;20037;-73
2023/08/20 09:49:39;;;;;;;12.20;5.78;;;22.90;99.90;;;;;;5023981;28;20481;-73
2023/08/20 09:52:10;;;;;;;18.90;6.05;;;22.90;99.90;;;;;;5023093;28;20037;-73
2023/08/20 09:54:41;;;;;;;13.10;6.38;;;23.00;99.90;;;;;;5025151;28;20021;-75
2023/08/20 09:57:14;;;;;;;13.18;5.55;;;23.10;99.90;;;;;;5024063;28;20045;-73
2023/08/20 09:59:42;;;;;;;16.38;6.57;;;23.10;99.90;;;;;;5024519;28;20037;-75
2023/08/20 10:02:12;;;;;;;15.57;6.45;;;23.10;99.90;;;;;;5024857;28;20037;-77
2023/08/20 10:04:37;;;;;;;15.88;5.80;;;23.10;99.90;;;;;;5024813;28;20025;-71
2023/08/20 10:07:04;;;;;;;17.92;6.72;;;23.10;99.90;;;;;;5025094;28;20025;-71
2023/08/20 10:09:29;;;;;;;16.05;6.93;;;23.20;99.90;;;;;;5024280;28;20072;-73
2023/08/20 10:11:55;;;;;;;13.23;6.30;;;23.20;99.90;;;;;;5024122;28;20033;-74
2023/08/20 10:14:21;;;;;;;17.02;6.63;;;23.30;99.90;;;;;;5023895;28;20028;-77
2023/08/20 10:16:47;;;;;;;17.70;6.93;;;23.40;99.90;;;;;;5024575;28;20042;-69
2023/08/20 10:19:16;;;;;;;14.38;5.82;;;23.50;99.90;;;;;;5024866;28;20041;-72
2023/08/20 10:21:49;;;;;;;14.60;5.60;;;23.60;99.90;;;;;;5020820;28;20024;-72
2023/08/20 10:24:21;;;;;;;12.82;5.55;;;23.70;99.90;;;;;;5009592;28;20025;-73
2023/08/20 10:26:48;;;;;;;9.93;5.70;;;23.70;99.90;;;;;;5011649;28;20054;-72
2023/08/20 10:29:40;;;;;;;16.27;5.40;;;23.70;99.90;;;;;;5018269;28;20034;-75
2023/08/20 10:32:10;;;;;;;12.95;5.70;;;23.60;99.90;;;;;;5016234;28;20057;-73
2023/08/20 10:34:40;;;;;;;13.40;6.03;;;23.70;99.90;;;;;;5025960;28;20049;-73
2023/08/20 10:37:15;;;;;;;11.60;5.50;;;23.80;99.90;;;;;;5026946;28;20048;-76
2023/08/20 10:39:44;;;;;;;14.00;5.10;;;24.00;99.90;;;;;;5007628;28;20065;-74
2023/08/20 10:42:19;;;;;;;16.75;5.25;;;24.10;99.90;;;;;;5023900;28;20540;-73
2023/08/20 10:45:10;;;;;;;15.85;5.55;;;24.20;99.90;;;;;;5018632;28;20026;-74
2023/08/20 10:47:36;;;;;;;12.63;5.40;;;24.30;99.90;;;;;;5024746;28;20038;-73
2023/08/20 10:50:03;;;;;;;11.65;5.13;;;24.40;99.90;;;;;;5020616;28;20034;-78
2023/08/20 10:52:28;;;;;;;13.70;5.43;;;24.30;99.90;;;;;;5025287;28;20045;-72
2023/08/20 10:54:56;;;;;;;16.77;5.75;;;24.30;99.90;;;;;;5026980;28;20025;-73
2023/08/20 10:57:22;;;;;;;12.95;5.22;;;24.30;99.90;;;;;;5025675;28;20050;-77
2023/08/20 11:00:00;;;;;;;14.18;5.28;;;24.20;99.90;;;;;;5020679;28;20109;-75
2023/08/20 11:02:29;;;;;;;16.60;5.57;;;24.10;99.90;;;;;;5022432;28;20026;-76
2023/08/20 11:04:55;;;;;;;10.27;4.80;;;24.10;99.90;;;;;;5023041;28;20026;-75
2023/08/20 11:07:21;;;;;;;11.55;4.97;;;24.30;99.90;;;;;;5027020;28;20036;-74
2023/08/20 11:09:49;;;;;;;13.65;4.50;;;24.30;99.90;;;;;;5018772;28;20060;-76
2023/08/20 11:12:16;;;;;;;15.25;5.28;;;24.40;99.90;;;;;;5026341;28;20022;-73
2023/08/20 11:14:41;;;;;;;13.85;5.28;;;24.70;99.90;;;;;;5023695;28;20029;-73
2023/08/20 11:17:10;;;;;;;13.75;4.30;;;24.90;99.90;;;;;;5027236;28;20048;-76
2023/08/20 11:19:37;;;;;;;13.75;5.00;;;24.90;99.90;;;;;;5033851;28;20034;-75
2023/08/20 11:22:02;;;;;;;11.02;4.35;;;24.80;99.90;;;;;;5026893;28;20053;-76
2023/08/20 11:24:32;;;;;;;14.00;4.50;;;24.70;99.90;;;;;;5022713;28;20037;-73
2023/08/20 11:26:57;;;;;;;11.85;4.20;;;24.50;99.90;;;;;;5023558;28;20034;-73
2023/08/20 11:29:26;;;;;;;11.20;3.70;;;24.50;99.90;;;;;;5025573;28;20029;-76
2023/08/20 11:31:52;;;;;;;12.55;4.55;;;24.60;99.90;;;;;;5025212;28;20049;-76
2023/08/20 11:34:18;;;;;;;8.63;4.05;;;24.70;99.90;;;;;;5020628;28;20046;-72
2023/08/20 11:36:44;;;;;;;9.35;3.60;;;24.80;99.90;;;;;;5022019;28;20407;-79
2023/08/20 11:39:10;;;;;;;16.55;4.20;;;25.10;99.90;;;;;;5022934;28;20026;-73
2023/08/20 11:41:37;;;;;;;10.45;4.00;;;25.20;99.90;;;;;;5023514;28;20030;-74
2023/08/20 11:44:03;;;;;;;9.45;3.40;;;25.40;99.90;;;;;;5026335;28;20117;-73
2023/08/20 11:46:29;;;;;;;8.75;3.42;;;25.60;99.90;;;;;;5027052;28;20184;-74
2023/08/20 11:49:08;;;;;;;10.68;3.67;;;25.80;99.90;;;;;;5027432;28;20034;-73
2023/08/20 11:51:46;;;;;;;18.15;4.60;;;25.90;99.90;;;;;;5016044;28;20032;-76
2023/08/20 11:54:14;;;;;;;10.98;4.30;;;25.90;99.90;;;;;;5017429;28;20030;-74
2023/08/20 11:56:50;;;;;;;12.00;3.80;;;26.00;99.90;;;;;;5021411;28;20049;-74
2023/08/20 11:59:18;;;;;;;9.68;3.60;;;26.20;99.90;;;;;;5017502;28;20033;-73
2023/08/20 12:01:55;;;;;;;15.48;3.53;;;26.30;99.90;;;;;;5016401;28;20022;-74
2023/08/20 12:04:25;;;;;;;12.25;4.07;;;26.40;99.90;;;;;;5019439;28;20029;-76
2023/08/20 12:07:05;;;;;;;10.45;3.90;;;26.40;99.90;;;;;;5016426;28;20026;-73
2023/08/20 12:09:32;;;;;;;8.60;3.50;;;26.20;99.90;;;;;;5017220;28;20018;-73
2023/08/20 12:11:58;;;;;;;11.18;3.42;;;26.20;99.90;;;;;;5018033;28;20037;-74
2023/08/20 12:14:24;;;;;;;10.45;3.72;;;26.00;99.90;;;;;;5018162;28;20061;-74
2023/08/20 12:16:53;;;;;;;7.68;3.22;;;25.80;99.90;;;;;;5023842;28;20046;-72
2023/08/20 12:19:19;;;;;;;11.23;3.53;;;25.60;99.90;;;;;;5018228;28;20026;-73
2023/08/20 12:21:45;;;;;;;12.63;3.30;;;25.60;99.90;;;;;;5014082;28;20061;-75
2023/08/20 12:24:11;;;;;;;8.18;3.50;;;25.80;99.90;;;;;;5016006;28;20077;-74
2023/08/20 12:26:38;;;;;;;5.82;2.72;;;25.70;99.90;;;;;;5015900;28;20083;-73
2023/08/20 12:29:05;;;;;;;8.68;3.20;;;25.50;99.90;;;;;;5023574;28;20030;-75
2023/08/20 12:31:34;;;;;;;6.68;3.17;;;25.40;99.90;;;;;;5024103;28;20042;-73
2023/08/20 12:34:00;;;;;;;7.15;2.75;;;25.50;99.90;;;;;;5023419;28;20042;-73